createdAt,value
2023-01-22T00:01:38.576Z,99.50
2023-01-22T00:04:00.405Z,99.45
2023-01-22T00:06:23.598Z,99.17
2023-01-22T00:08:46.724Z,99.41
2023-01-22T00:11:08.212Z,99.34
2023-01-22T00:13:30.030Z,99.27
2023-01-22T00:15:51.679Z,99.45
2023-01-22T00:18:13.463Z,99.80
2023-01-22T00:20:34.974Z,99.66
2023-01-22T00:22:56.434Z,100.00
2023-01-22T00:25:18.005Z,100.00
2023-01-22T00:27:41.780Z,99.70
2023-01-22T00:30:03.482Z,99.07
2023-01-22T00:32:24.977Z,99.32
2023-01-22T00:34:52.200Z,99.46
2023-01-22T00:37:13.766Z,100.00
2023-01-22T00:39:35.190Z,100.00
2023-01-22T00:41:56.595Z,100.00
2023-01-22T00:44:18.139Z,100.00
2023-01-22T00:46:39.688Z,100.00
2023-01-22T00:49:03.574Z,100.00
2023-01-22T00:51:25.211Z,100.00
2023-01-22T00:53:46.813Z,100.00
2023-01-22T00:56:09.146Z,100.00
2023-01-22T00:58:30.717Z,100.00
2023-01-22T01:00:52.476Z,100.00
2023-01-22T01:03:26.812Z,100.00
2023-01-22T01:05:48.263Z,100.00
2023-01-22T01:08:09.725Z,99.70
2023-01-22T01:10:31.233Z,99.37
2023-01-22T01:12:52.725Z,99.75
2023-01-22T01:15:14.194Z,99.08
2023-01-22T01:17:36.027Z,99.22
2023-01-22T01:19:57.458Z,99.42
2023-01-22T01:22:18.922Z,100.00
2023-01-22T01:24:40.380Z,100.00
2023-01-22T01:27:01.919Z,100.00
2023-01-22T01:29:23.351Z,100.00
2023-01-22T01:31:45.848Z,100.00
2023-01-22T01:34:07.414Z,100.00
2023-01-22T01:36:47.661Z,100.00
2023-01-22T01:39:10.507Z,100.00
2023-01-22T01:41:32.110Z,100.00
2023-01-22T01:44:14.806Z,100.00
2023-01-22T01:46:44.271Z,100.00
2023-01-22T01:49:07.024Z,100.00
2023-01-22T01:51:32.890Z,100.00
2023-01-22T01:53:54.841Z,100.00
2023-01-22T01:56:35.032Z,100.00
2023-01-22T01:59:03.087Z,100.00
2023-01-22T02:01:25.943Z,100.00
2023-01-22T02:03:47.640Z,100.00
2023-01-22T02:06:14.158Z,100.00
2023-01-22T02:08:35.611Z,100.00
2023-01-22T02:10:57.138Z,100.00
2023-01-22T02:13:23.953Z,100.00
2023-01-22T02:15:45.593Z,100.00
2023-01-22T02:18:07.202Z,100.00
2023-01-22T02:20:36.344Z,100.00
2023-01-22T02:22:57.823Z,100.00
2023-01-22T02:25:19.663Z,100.00
2023-01-22T02:27:41.143Z,100.00
2023-01-22T02:30:02.587Z,100.00
2023-01-22T02:32:24.123Z,100.00
2023-01-22T02:34:45.746Z,100.00
2023-01-22T02:37:07.508Z,100.00
2023-01-22T02:39:29.238Z,100.00
2023-01-22T02:41:51.424Z,100.00
2023-01-22T02:44:13.014Z,100.00
2023-01-22T02:46:34.512Z,100.00
2023-01-22T02:48:55.983Z,100.00
2023-01-22T02:51:17.583Z,100.00
2023-01-22T02:53:39.160Z,100.00
2023-01-22T02:56:04.952Z,100.00
2023-01-22T02:58:26.565Z,100.00
2023-01-22T03:00:48.030Z,100.00
2023-01-22T03:03:15.314Z,100.00
2023-01-22T03:05:36.760Z,100.00
2023-01-22T03:07:58.973Z,100.00
2023-01-22T03:10:21.237Z,100.00
2023-01-22T03:13:02.651Z,100.00
2023-01-22T03:15:42.780Z,100.00
2023-01-22T03:18:22.760Z,100.00
2023-01-22T03:21:02.863Z,100.00
2023-01-22T03:23:27.941Z,100.00
2023-01-22T03:25:56.285Z,100.00
2023-01-22T03:28:19.371Z,100.00
2023-01-22T03:30:40.815Z,100.00
2023-01-22T03:33:02.272Z,100.00
2023-01-22T03:35:23.806Z,99.77
2023-01-22T03:37:45.250Z,100.00
2023-01-22T03:40:07.099Z,99.64
2023-01-22T03:42:28.602Z,99.21
2023-01-22T03:44:50.031Z,99.87
2023-01-22T03:47:11.526Z,99.55
2023-01-22T03:49:32.943Z,99.19
2023-01-22T03:51:54.419Z,99.16
2023-01-22T03:54:16.538Z,98.63
2023-01-22T03:56:38.614Z,97.91
2023-01-22T03:59:00.113Z,97.46
2023-01-22T04:01:26.693Z,97.27
2023-01-22T04:03:49.079Z,97.29
2023-01-22T04:06:12.231Z,97.58
2023-01-22T04:08:35.584Z,97.40
2023-01-22T04:10:57.827Z,97.26
2023-01-22T04:13:19.302Z,96.81
2023-01-22T04:15:44.926Z,96.88
2023-01-22T04:18:06.385Z,97.40
2023-01-22T04:20:29.122Z,96.94
2023-01-22T04:22:50.595Z,97.36
2023-01-22T04:25:12.020Z,97.35
2023-01-22T04:27:37.708Z,97.77
2023-01-22T04:29:59.315Z,97.55
2023-01-22T04:32:20.824Z,97.22
2023-01-22T04:34:42.878Z,97.09
2023-01-22T04:37:04.334Z,96.80
2023-01-22T04:39:25.781Z,96.71
2023-01-22T04:41:47.683Z,96.36
2023-01-22T04:44:09.207Z,96.72
2023-01-22T04:46:30.698Z,96.69
2023-01-22T04:48:52.170Z,96.59
2023-01-22T04:51:13.691Z,96.60
2023-01-22T04:53:51.126Z,96.80
2023-01-22T04:56:13.053Z,97.12
2023-01-22T04:58:34.557Z,96.98
2023-01-22T05:00:57.035Z,96.81
2023-01-22T05:03:18.560Z,96.71
2023-01-22T05:05:40.053Z,96.01
2023-01-22T05:08:01.660Z,96.37
2023-01-22T05:10:23.548Z,96.04
2023-01-22T05:12:46.408Z,97.28
2023-01-22T05:15:22.511Z,97.30
2023-01-22T05:17:45.492Z,97.64
2023-01-22T05:20:07.739Z,97.79
2023-01-22T05:22:29.193Z,96.68
2023-01-22T05:24:50.632Z,97.05
2023-01-22T05:27:12.101Z,96.56
2023-01-22T05:29:33.536Z,96.79
2023-01-22T05:31:55.756Z,97.11
2023-01-22T05:34:17.485Z,95.80
2023-01-22T05:36:39.019Z,96.76
2023-01-22T05:39:00.445Z,96.59
2023-01-22T05:41:21.941Z,96.59
2023-01-22T05:43:43.419Z,96.50
2023-01-22T05:46:05.658Z,96.68
2023-01-22T05:48:27.138Z,96.85
2023-01-22T05:50:57.319Z,96.39
2023-01-22T05:53:18.980Z,96.63
2023-01-22T05:55:40.409Z,96.96
2023-01-22T05:58:02.594Z,97.06
2023-01-22T06:00:24.321Z,96.46
2023-01-22T06:02:45.992Z,96.71
2023-01-22T06:05:08.348Z,96.65
2023-01-22T06:07:30.924Z,97.29
2023-01-22T06:09:52.372Z,97.34
2023-01-22T06:12:15.863Z,97.80
2023-01-22T06:14:37.406Z,98.00
2023-01-22T06:16:58.905Z,98.62
2023-01-22T06:19:20.364Z,97.98
2023-01-22T06:21:43.674Z,98.52
2023-01-22T06:24:05.445Z,98.95
2023-01-22T06:26:26.911Z,98.87
2023-01-22T06:28:48.394Z,98.64
2023-01-22T06:31:10.173Z,98.94
2023-01-22T06:33:33.701Z,99.53
2023-01-22T06:35:56.222Z,99.54
2023-01-22T06:38:17.779Z,98.80
2023-01-22T06:40:39.207Z,98.59
2023-01-22T06:43:05.745Z,98.29
2023-01-22T06:45:27.172Z,98.43
2023-01-22T06:47:48.624Z,99.06
2023-01-22T06:50:11.361Z,99.27
2023-01-22T06:52:32.835Z,98.75
2023-01-22T06:54:54.331Z,98.82
2023-01-22T06:57:16.091Z,98.69
2023-01-22T06:59:37.583Z,98.40
2023-01-22T07:01:59.051Z,98.13
2023-01-22T07:04:20.596Z,98.02
2023-01-22T07:06:42.128Z,97.77
2023-01-22T07:09:03.660Z,97.66
2023-01-22T07:11:25.105Z,97.71
2023-01-22T07:13:46.547Z,97.14
2023-01-22T07:16:08.545Z,97.35
2023-01-22T07:18:30.161Z,96.94
2023-01-22T07:20:51.654Z,96.80
2023-01-22T07:23:13.253Z,96.80
2023-01-22T07:25:34.752Z,96.94
2023-01-22T07:28:00.698Z,96.99
2023-01-22T07:30:22.182Z,97.84
2023-01-22T07:32:43.696Z,97.45
2023-01-22T07:35:05.514Z,97.46
2023-01-22T07:37:26.966Z,97.13
2023-01-22T07:39:48.401Z,97.25
2023-01-22T07:42:09.952Z,97.28
2023-01-22T07:44:31.432Z,97.62
2023-01-22T07:46:52.964Z,98.13
2023-01-22T07:49:14.687Z,98.14
2023-01-22T07:51:36.305Z,98.39
2023-01-22T07:53:57.956Z,97.72
2023-01-22T07:56:19.483Z,97.93
2023-01-22T07:58:41.273Z,97.91
2023-01-22T08:01:11.110Z,97.80
2023-01-22T08:03:34.085Z,97.37
2023-01-22T08:05:56.675Z,97.76
2023-01-22T08:08:22.720Z,97.06
2023-01-22T08:10:44.932Z,96.95
2023-01-22T08:13:06.405Z,96.89
2023-01-22T08:15:27.866Z,96.88
2023-01-22T08:17:51.298Z,97.21
2023-01-22T08:20:12.798Z,96.95
2023-01-22T08:22:34.265Z,96.79
2023-01-22T08:24:55.725Z,96.59
2023-01-22T08:27:17.598Z,96.97
2023-01-22T08:29:39.031Z,96.59
2023-01-22T08:32:00.739Z,96.94
2023-01-22T08:34:22.742Z,97.70
2023-01-22T08:36:44.215Z,97.56
2023-01-22T08:39:05.862Z,97.66
2023-01-22T08:41:27.308Z,97.22
2023-01-22T08:43:48.998Z,98.30
2023-01-22T08:46:10.750Z,98.17
2023-01-22T08:48:32.360Z,98.01
2023-01-22T08:50:53.860Z,98.25
2023-01-22T08:53:15.361Z,98.39
2023-01-22T08:55:36.963Z,97.66
2023-01-22T08:57:58.785Z,97.58
2023-01-22T09:00:21.430Z,97.24
2023-01-22T09:02:42.861Z,97.42
2023-01-22T09:05:04.563Z,97.84
2023-01-22T09:07:26.059Z,97.64
2023-01-22T09:09:47.526Z,97.22
2023-01-22T09:12:09.032Z,97.16
2023-01-22T09:14:30.614Z,98.04
2023-01-22T09:16:52.153Z,97.53
2023-01-22T09:19:13.806Z,97.93
2023-01-22T09:21:37.397Z,98.35
2023-01-22T09:23:58.912Z,98.27
2023-01-22T09:26:20.560Z,98.37
2023-01-22T09:28:42.086Z,98.62
2023-01-22T09:31:04.465Z,98.38
2023-01-22T09:33:26.013Z,98.34
2023-01-22T09:35:47.535Z,98.58
2023-01-22T09:38:13.527Z,98.01
2023-01-22T09:40:52.981Z,98.16
2023-01-22T09:43:32.199Z,98.18
2023-01-22T09:45:58.799Z,97.99
2023-01-22T09:48:21.603Z,97.64
2023-01-22T09:50:43.803Z,96.84
2023-01-22T09:53:09.709Z,97.76
2023-01-22T09:55:38.798Z,98.20
2023-01-22T09:58:02.852Z,98.21
2023-01-22T10:00:32.395Z,98.40
2023-01-22T10:03:05.064Z,98.00
2023-01-22T10:05:46.799Z,98.41
2023-01-22T10:08:14.889Z,98.28
2023-01-22T10:10:36.695Z,98.39
2023-01-22T10:13:10.923Z,98.22
2023-01-22T10:15:33.343Z,97.51
2023-01-22T10:17:57.198Z,97.11
2023-01-22T10:20:20.779Z,97.48
2023-01-22T10:22:42.359Z,97.18
2023-01-22T10:25:04.105Z,96.77
2023-01-22T10:27:35.065Z,96.58
2023-01-22T10:30:01.555Z,96.95
2023-01-22T10:32:28.967Z,96.94
2023-01-22T10:35:16.769Z,96.75
2023-01-22T10:37:51.052Z,96.12
2023-01-22T10:40:38.603Z,95.74
2023-01-22T10:43:06.762Z,94.96
2023-01-22T10:45:28.367Z,94.73
2023-01-22T10:47:49.819Z,95.77
2023-01-22T10:50:16.205Z,95.17
2023-01-22T10:52:49.172Z,95.07
2023-01-22T10:55:31.832Z,94.58
2023-01-22T10:58:03.997Z,94.57
2023-01-22T11:00:42.970Z,95.09
2023-01-22T11:03:23.880Z,94.77
2023-01-22T11:05:47.493Z,94.32
2023-01-22T11:08:16.782Z,93.83
2023-01-22T11:10:55.555Z,94.58
2023-01-22T11:13:27.367Z,94.02
2023-01-22T11:15:57.675Z,93.91
2023-01-22T11:18:29.093Z,93.43
2023-01-22T11:20:56.937Z,93.70
2023-01-22T11:23:49.381Z,94.83
2023-01-22T11:26:39.557Z,94.24
2023-01-22T11:29:33.525Z,94.77
2023-01-22T11:32:33.719Z,94.89
2023-01-22T11:35:15.284Z,95.33
2023-01-22T11:37:54.127Z,95.24
2023-01-22T11:40:28.992Z,94.16
2023-01-22T11:43:18.925Z,93.33
2023-01-22T11:45:59.130Z,93.60
2023-01-22T11:48:26.884Z,94.13
2023-01-22T11:51:18.616Z,95.19
2023-01-22T11:54:17.730Z,94.68
2023-01-22T11:57:05.500Z,95.05
2023-01-22T11:59:53.721Z,95.10
2023-01-22T12:02:34.686Z,95.11
2023-01-22T12:05:02.116Z,94.58
2023-01-22T12:08:02.284Z,95.03
2023-01-22T12:10:26.406Z,94.78
2023-01-22T12:13:15.823Z,94.52
2023-01-22T12:16:04.062Z,94.83
2023-01-22T12:18:48.655Z,94.93
2023-01-22T12:21:15.777Z,94.90
2023-01-22T12:23:53.963Z,94.58
2023-01-22T12:26:24.539Z,94.46
2023-01-22T12:28:59.979Z,94.42
2023-01-22T12:31:30.201Z,93.92
2023-01-22T12:33:51.807Z,93.87
2023-01-22T12:36:20.570Z,94.30
2023-01-22T12:38:44.703Z,94.32
2023-01-22T12:41:27.774Z,94.35
2023-01-22T12:44:03.362Z,94.48
2023-01-22T12:46:27.848Z,95.07
2023-01-22T12:49:16.883Z,95.18
2023-01-22T12:51:47.004Z,94.80
2023-01-22T12:54:33.570Z,94.94
2023-01-22T12:57:20.746Z,95.14
2023-01-22T12:59:48.043Z,94.39
2023-01-22T13:02:30.505Z,94.36
2023-01-22T13:04:52.968Z,94.79
2023-01-22T13:07:25.024Z,94.83
2023-01-22T13:09:46.793Z,95.34
2023-01-22T13:12:26.016Z,95.67
2023-01-22T13:14:49.619Z,95.90
2023-01-22T13:17:20.644Z,95.79
2023-01-22T13:19:47.047Z,96.17
2023-01-22T13:22:17.041Z,96.06
2023-01-22T13:24:48.880Z,96.13
2023-01-22T13:27:22.995Z,96.52
2023-01-22T13:29:45.802Z,96.07
2023-01-22T13:32:22.280Z,96.10
2023-01-22T13:34:43.837Z,95.94
2023-01-22T13:37:06.883Z,95.64
2023-01-22T13:39:31.494Z,95.93
2023-01-22T13:41:55.605Z,95.90
2023-01-22T13:44:24.650Z,96.94
2023-01-22T13:46:46.904Z,97.21
2023-01-22T13:49:22.208Z,97.64
2023-01-22T13:51:43.911Z,97.67
2023-01-22T13:54:06.657Z,97.30
2023-01-22T13:56:28.862Z,97.40
2023-01-22T13:58:50.571Z,97.88
2023-01-22T14:01:14.347Z,98.55
2023-01-22T14:03:36.643Z,98.25
2023-01-22T14:06:10.879Z,98.04
2023-01-22T14:08:43.898Z,98.30
2023-01-22T14:11:05.342Z,98.25
2023-01-22T14:13:26.867Z,98.82
2023-01-22T14:15:59.637Z,98.82
2023-01-22T14:18:21.728Z,98.76
2023-01-22T14:20:46.062Z,98.26
2023-01-22T14:23:08.123Z,98.79
2023-01-22T14:25:31.649Z,98.47
2023-01-22T14:27:53.554Z,98.38
2023-01-22T14:30:18.057Z,98.58
2023-01-22T14:32:39.813Z,98.02
2023-01-22T14:35:01.809Z,97.86
2023-01-22T14:37:23.341Z,98.50
2023-01-22T14:39:44.783Z,98.92
2023-01-22T14:42:06.232Z,98.52
2023-01-22T14:44:28.217Z,98.06
2023-01-22T14:46:52.002Z,98.61
2023-01-22T14:49:13.605Z,99.08
2023-01-22T14:51:35.105Z,99.13
2023-01-22T14:53:58.325Z,99.06
2023-01-22T14:56:20.196Z,98.62
2023-01-22T14:58:41.659Z,97.88
2023-01-22T15:01:18.542Z,98.38
2023-01-22T15:03:40.024Z,98.86
2023-01-22T15:06:01.457Z,98.85
2023-01-22T15:08:23.179Z,99.13
2023-01-22T15:10:44.961Z,98.86
2023-01-22T15:13:06.416Z,99.44
2023-01-22T15:15:28.728Z,99.19
2023-01-22T15:17:53.301Z,99.83
2023-01-22T15:20:14.919Z,99.02
2023-01-22T15:22:36.429Z,98.91
2023-01-22T15:24:57.884Z,99.38
2023-01-22T15:27:20.283Z,99.51
2023-01-22T15:29:43.008Z,99.84
2023-01-22T15:32:04.800Z,99.90
2023-01-22T15:34:26.311Z,99.09
2023-01-22T15:36:47.927Z,99.16
2023-01-22T15:39:09.374Z,98.81
2023-01-22T15:41:33.360Z,99.35
2023-01-22T15:43:56.792Z,98.98
2023-01-22T15:46:19.866Z,98.91
2023-01-22T15:48:41.318Z,99.49
2023-01-22T15:51:10.450Z,99.23
2023-01-22T15:53:31.919Z,99.62
2023-01-22T15:55:53.360Z,98.56
2023-01-22T15:58:14.892Z,98.89
2023-01-22T16:00:36.409Z,99.43
2023-01-22T16:02:57.869Z,99.99
2023-01-22T16:05:21.241Z,100.00
2023-01-22T16:07:42.700Z,100.00
2023-01-22T16:10:04.759Z,99.71
2023-01-22T16:12:26.211Z,100.00
2023-01-22T16:14:47.651Z,100.00
2023-01-22T16:17:09.125Z,100.00
2023-01-22T16:19:30.586Z,100.00
2023-01-22T16:21:53.261Z,99.52
2023-01-22T16:24:14.848Z,99.35
2023-01-22T16:26:36.781Z,99.64
2023-01-22T16:29:00.343Z,100.00
2023-01-22T16:31:28.176Z,100.00
2023-01-22T16:33:58.010Z,100.00
2023-01-22T16:36:21.357Z,100.00
2023-01-22T16:38:43.223Z,100.00
2023-01-22T16:41:27.292Z,100.00
2023-01-22T16:43:50.447Z,100.00
2023-01-22T16:46:12.844Z,100.00
2023-01-22T16:48:34.319Z,100.00
2023-01-22T16:50:55.802Z,99.86
2023-01-22T16:53:17.358Z,99.84
2023-01-22T16:55:38.845Z,100.00
2023-01-22T16:58:00.892Z,99.94
2023-01-22T17:00:22.339Z,99.05
2023-01-22T17:02:43.866Z,99.15
2023-01-22T17:05:08.684Z,99.24
2023-01-22T17:07:33.884Z,99.86
2023-01-22T17:09:55.765Z,100.00
2023-01-22T17:12:17.210Z,99.53
2023-01-22T17:14:38.776Z,99.63
2023-01-22T17:17:00.205Z,100.00
2023-01-22T17:19:22.550Z,99.93
2023-01-22T17:21:44.356Z,99.79
2023-01-22T17:24:06.195Z,99.41
2023-01-22T17:26:27.716Z,98.85
2023-01-22T17:28:49.331Z,98.74
2023-01-22T17:31:15.443Z,99.28
2023-01-22T17:33:37.499Z,98.32
2023-01-22T17:35:59.898Z,98.89
2023-01-22T17:38:23.670Z,98.55
2023-01-22T17:40:45.093Z,98.34
2023-01-22T17:43:06.576Z,98.49
2023-01-22T17:45:28.210Z,97.75
2023-01-22T17:47:49.790Z,97.39
2023-01-22T17:50:12.899Z,98.13
2023-01-22T17:52:34.373Z,98.77
2023-01-22T17:54:55.808Z,99.34
2023-01-22T17:57:17.277Z,99.34
2023-01-22T17:59:38.746Z,98.75
2023-01-22T18:02:00.303Z,99.35
2023-01-22T18:04:21.842Z,98.94
2023-01-22T18:06:43.950Z,99.06
2023-01-22T18:09:06.752Z,98.90
2023-01-22T18:11:29.899Z,98.80
2023-01-22T18:13:51.419Z,98.85
2023-01-22T18:16:15.675Z,98.90
2023-01-22T18:18:37.305Z,99.12
2023-01-22T18:20:58.791Z,98.93
2023-01-22T18:23:20.292Z,98.90
2023-01-22T18:25:49.775Z,98.60
2023-01-22T18:28:11.339Z,98.47
2023-01-22T18:30:34.104Z,98.46
2023-01-22T18:32:55.615Z,98.10
2023-01-22T18:35:17.359Z,97.97
2023-01-22T18:37:40.347Z,97.74
2023-01-22T18:40:02.017Z,97.69
2023-01-22T18:42:23.520Z,97.32
2023-01-22T18:44:45.121Z,96.63
2023-01-22T18:47:13.442Z,96.41
2023-01-22T18:49:34.909Z,95.32
2023-01-22T18:52:00.801Z,95.30
2023-01-22T18:54:22.339Z,94.74
2023-01-22T18:56:44.169Z,95.23
2023-01-22T18:59:06.066Z,95.18
2023-01-22T19:01:33.509Z,95.45
2023-01-22T19:04:00.781Z,95.68
2023-01-22T19:06:24.604Z,94.63
2023-01-22T19:08:54.807Z,94.53
2023-01-22T19:11:16.689Z,94.73
2023-01-22T19:13:39.771Z,94.65
2023-01-22T19:16:10.853Z,94.41
2023-01-22T19:18:32.567Z,94.92
2023-01-22T19:20:54.264Z,94.16
2023-01-22T19:23:15.922Z,94.68
2023-01-22T19:25:37.383Z,94.52
2023-01-22T19:27:58.906Z,95.05
2023-01-22T19:30:21.019Z,94.55
2023-01-22T19:32:42.448Z,94.62
2023-01-22T19:35:05.756Z,94.81
2023-01-22T19:37:29.396Z,94.51
2023-01-22T19:39:51.337Z,95.42
2023-01-22T19:42:13.135Z,95.61
2023-01-22T19:44:35.549Z,95.67
2023-01-22T19:46:57.342Z,96.10
2023-01-22T19:49:18.807Z,95.30
2023-01-22T19:51:40.903Z,95.04
2023-01-22T19:54:04.634Z,94.31
2023-01-22T19:56:30.567Z,94.31
2023-01-22T19:58:56.637Z,93.58
2023-01-22T20:01:18.355Z,92.77
2023-01-22T20:03:39.898Z,92.64
2023-01-22T20:06:05.956Z,92.69
2023-01-22T20:08:27.405Z,92.28
2023-01-22T20:10:58.390Z,92.47
2023-01-22T20:13:19.845Z,92.53
2023-01-22T20:15:42.505Z,91.69
2023-01-22T20:18:04.197Z,91.69
2023-01-22T20:20:26.138Z,92.47
2023-01-22T20:22:48.734Z,92.24
2023-01-22T20:25:10.834Z,91.87
2023-01-22T20:27:32.348Z,90.95
2023-01-22T20:29:53.927Z,90.51
2023-01-22T20:32:15.810Z,90.78
2023-01-22T20:34:37.570Z,90.81
2023-01-22T20:36:59.402Z,90.99
2023-01-22T20:39:20.933Z,90.28
2023-01-22T20:41:43.267Z,90.22
2023-01-22T20:44:05.320Z,90.70
2023-01-22T20:46:27.520Z,90.80
2023-01-22T20:48:49.813Z,91.10
2023-01-22T20:51:18.925Z,91.27
2023-01-22T20:53:41.132Z,91.15
2023-01-22T20:56:06.651Z,90.87
2023-01-22T20:58:28.448Z,91.01
2023-01-22T21:00:49.909Z,91.06
2023-01-22T21:03:11.401Z,89.62
2023-01-22T21:05:32.925Z,89.56
2023-01-22T21:07:54.377Z,90.14
2023-01-22T21:10:16.285Z,89.97
2023-01-22T21:12:40.853Z,90.53
2023-01-22T21:15:03.080Z,90.52
2023-01-22T21:17:24.599Z,90.39
2023-01-22T21:19:46.076Z,90.42
2023-01-22T21:22:07.541Z,90.69
2023-01-22T21:24:29.168Z,91.27
2023-01-22T21:26:50.879Z,91.75
2023-01-22T21:29:18.047Z,91.92
2023-01-22T21:31:39.616Z,92.43
2023-01-22T21:34:02.903Z,92.30
2023-01-22T21:36:24.959Z,92.59
2023-01-22T21:38:47.623Z,92.23
2023-01-22T21:41:12.546Z,92.76
2023-01-22T21:43:52.786Z,92.57
2023-01-22T21:46:25.071Z,93.22
2023-01-22T21:48:46.682Z,93.04
2023-01-22T21:51:08.275Z,92.90
2023-01-22T21:53:29.793Z,92.55
2023-01-22T21:55:53.092Z,91.86
2023-01-22T21:58:14.599Z,91.98
2023-01-22T22:00:36.070Z,92.38
2023-01-22T22:02:57.639Z,91.84
2023-01-22T22:05:19.163Z,91.80
2023-01-22T22:07:40.658Z,91.60
2023-01-22T22:10:02.687Z,92.00
2023-01-22T22:12:26.006Z,91.92
2023-01-22T22:14:47.519Z,91.72
2023-01-22T22:17:09.054Z,91.09
2023-01-22T22:19:30.615Z,91.13
2023-01-22T22:21:52.409Z,91.57
2023-01-22T22:24:14.275Z,91.33
2023-01-22T22:26:35.961Z,91.06
2023-01-22T22:28:57.429Z,91.33
2023-01-22T22:31:19.745Z,91.68
2023-01-22T22:33:46.981Z,92.30
2023-01-22T22:36:10.118Z,91.95
2023-01-22T22:38:31.635Z,92.44
2023-01-22T22:41:05.398Z,92.48
2023-01-22T22:43:26.965Z,92.40
2023-01-22T22:45:48.515Z,91.84
2023-01-22T22:48:10.012Z,91.89
2023-01-22T22:50:31.523Z,91.99
2023-01-22T22:52:52.986Z,92.63
2023-01-22T22:55:14.470Z,92.13
2023-01-22T22:57:35.925Z,92.83
2023-01-22T22:59:57.491Z,92.55
2023-01-22T23:02:18.940Z,92.34
2023-01-22T23:04:40.478Z,92.04
2023-01-22T23:07:02.301Z,91.70
2023-01-22T23:09:23.767Z,91.15
2023-01-22T23:11:46.367Z,91.15
2023-01-22T23:14:08.796Z,91.20
2023-01-22T23:16:32.845Z,90.97
2023-01-22T23:18:54.524Z,91.09
2023-01-22T23:21:19.109Z,91.09
2023-01-22T23:23:41.173Z,91.63
2023-01-22T23:26:07.044Z,91.51
2023-01-22T23:28:28.622Z,91.38
2023-01-22T23:30:50.156Z,91.46
2023-01-22T23:33:11.697Z,91.72
2023-01-22T23:35:33.127Z,91.60
2023-01-22T23:37:58.207Z,91.12
2023-01-22T23:40:20.261Z,91.05
2023-01-22T23:42:41.908Z,90.80
2023-01-22T23:45:03.867Z,91.54
2023-01-22T23:47:27.100Z,91.14
2023-01-22T23:49:48.713Z,91.15
2023-01-22T23:52:10.147Z,91.47
2023-01-22T23:54:31.644Z,91.26
2023-01-22T23:56:53.079Z,91.15
2023-01-22T23:59:14.547Z,90.75
